createdAt,value
2019-05-11T00:00:44.614Z,94449.48
2019-05-11T00:03:13.317Z,94457.53
2019-05-11T00:05:41.965Z,94457.53
2019-05-11T00:08:10.826Z,94451.44
2019-05-11T00:10:39.998Z,94448.03
2019-05-11T00:13:08.585Z,94448.03
2019-05-11T00:15:37.451Z,94453.59
2019-05-11T00:18:06.298Z,94446.42
2019-05-11T00:20:35.145Z,94432.88
2019-05-11T00:23:03.747Z,94429.70
2019-05-11T00:25:32.365Z,94429.70
2019-05-11T00:28:01.112Z,94431.67
2019-05-11T00:30:29.932Z,94421.91
2019-05-11T00:32:58.797Z,94421.91
2019-05-11T00:35:27.731Z,94422.34
2019-05-11T00:37:56.322Z,94436.34
2019-05-11T00:40:25.024Z,94436.34
2019-05-11T00:42:53.624Z,94434.85
2019-05-11T00:45:22.612Z,94432.11
2019-05-11T00:47:51.209Z,94431.91
2019-05-11T00:50:19.918Z,94431.91
2019-05-11T00:52:48.586Z,94428.98
2019-05-11T00:55:17.201Z,94405.92
2019-05-11T00:57:46.087Z,94405.92
2019-05-11T01:00:15.185Z,94398.28
2019-05-11T01:02:43.954Z,94393.48
2019-05-11T01:05:12.705Z,94387.97
2019-05-11T01:07:41.294Z,94387.97
2019-05-11T01:10:22.968Z,94406.26
2019-05-11T01:12:40.477Z,94403.09
2019-05-11T01:15:09.541Z,94402.59
2019-05-11T01:17:38.151Z,94402.59
2019-05-11T01:20:07.137Z,94399.15
2019-05-11T01:22:35.776Z,94400.41
2019-05-11T01:25:04.876Z,94405.44
2019-05-11T01:27:33.723Z,94405.44
2019-05-11T01:30:02.599Z,94397.32
2019-05-11T01:32:31.259Z,94392.55
2019-05-11T01:35:00.175Z,94392.55
2019-05-11T01:37:28.777Z,94388.02
2019-05-11T01:39:57.635Z,94390.41
2019-05-11T01:42:26.470Z,94390.41
2019-05-11T01:44:55.065Z,94399.11
2019-05-11T01:47:23.684Z,94396.77
2019-05-11T01:49:52.295Z,94395.92
2019-05-11T01:52:21.173Z,94395.92
2019-05-11T01:54:49.839Z,94394.16
2019-05-11T01:57:18.469Z,94394.16
2019-05-11T01:59:47.371Z,94384.17
2019-05-11T02:02:15.996Z,94384.17
2019-05-11T02:04:44.615Z,94376.00
2019-05-11T02:07:13.516Z,94372.20
2019-05-11T02:09:42.228Z,94377.08
2019-05-11T02:12:10.857Z,94384.98
2019-05-11T02:14:39.461Z,94384.98
2019-05-11T02:17:08.129Z,94379.86
2019-05-11T02:19:36.794Z,94379.86
2019-05-11T02:22:05.928Z,94361.18
2019-05-11T02:24:34.531Z,94359.58
2019-05-11T02:27:03.133Z,94353.31
2019-05-11T02:29:31.766Z,94353.31
2019-05-11T02:32:00.439Z,94349.89
2019-05-11T02:34:29.042Z,94338.61
2019-05-11T02:36:57.918Z,94340.38
2019-05-11T02:39:26.599Z,94342.58
2019-05-11T02:41:55.307Z,94342.58
2019-05-11T02:44:24.148Z,94354.09
2019-05-11T02:46:52.775Z,94355.24
2019-05-11T02:49:21.377Z,94357.16
2019-05-11T02:51:50.372Z,94357.16
2019-05-11T02:54:19.733Z,94354.63
2019-05-11T02:56:48.363Z,94346.77
2019-05-11T02:59:16.948Z,94353.13
2019-05-11T03:01:45.545Z,94357.12
2019-05-11T03:04:14.186Z,94335.58
2019-05-11T03:06:42.915Z,94335.58
2019-05-11T03:09:11.782Z,94330.25
2019-05-11T03:11:54.858Z,94322.59
2019-05-11T03:14:11.428Z,94322.59
2019-05-11T03:16:40.061Z,94326.05
2019-05-11T03:19:08.906Z,94335.72
2019-05-11T03:21:37.510Z,94333.23
2019-05-11T03:24:06.303Z,94346.22
2019-05-11T03:26:34.940Z,94342.11
2019-05-11T03:29:03.781Z,94342.11
2019-05-11T03:31:32.799Z,94348.47
2019-05-11T03:34:01.413Z,94360.22
2019-05-11T03:36:30.091Z,94367.02
2019-05-11T03:38:58.689Z,94367.02
2019-05-11T03:41:27.290Z,94374.94
2019-05-11T03:43:56.121Z,94363.94
2019-05-11T03:46:24.832Z,94358.81
2019-05-11T03:48:53.695Z,94369.02
2019-05-11T03:51:22.311Z,94369.02
2019-05-11T03:53:50.982Z,94354.27
2019-05-11T03:56:19.617Z,94354.27
2019-05-11T03:58:48.250Z,94357.28
2019-05-11T04:01:16.876Z,94348.62
2019-05-11T04:03:45.565Z,94356.78
2019-05-11T04:06:14.160Z,94352.52
2019-05-11T04:08:42.815Z,94360.11
2019-05-11T04:11:11.435Z,94360.23
2019-05-11T04:13:40.033Z,94360.23
2019-05-11T04:16:08.757Z,94357.09
2019-05-11T04:18:37.646Z,94361.19
2019-05-11T04:21:06.491Z,94346.46
2019-05-11T04:23:35.094Z,94345.60
2019-05-11T04:26:04.049Z,94350.36
2019-05-11T04:28:32.660Z,94342.53
2019-05-11T04:31:01.365Z,94342.53
2019-05-11T04:33:33.007Z,94352.28
2019-05-11T04:36:00.556Z,94352.28
2019-05-11T04:38:29.161Z,94344.39
2019-05-11T04:40:57.994Z,94341.34
2019-05-11T04:43:26.851Z,94385.73
2019-05-11T04:45:55.466Z,94340.92
2019-05-11T04:48:24.092Z,94330.56
2019-05-11T04:50:52.738Z,94338.80
2019-05-11T04:53:21.441Z,94338.80
2019-05-11T04:55:50.288Z,94342.92
2019-05-11T04:58:19.202Z,94352.44
2019-05-11T05:00:48.051Z,94349.66
2019-05-11T05:03:16.964Z,94346.95
2019-05-11T05:05:45.605Z,94332.98
2019-05-11T05:08:14.193Z,94319.80
2019-05-11T05:10:42.870Z,94319.80
2019-05-11T05:13:11.485Z,94324.46
2019-05-11T05:15:40.383Z,94315.26
2019-05-11T05:18:09.085Z,94326.52
2019-05-11T05:20:37.703Z,94326.52
2019-05-11T05:23:06.413Z,94320.66
2019-05-11T05:25:35.324Z,94320.78
2019-05-11T05:28:03.994Z,94332.33
2019-05-11T05:30:32.648Z,94266.95
2019-05-11T05:33:01.404Z,94327.94
2019-05-11T05:35:30.015Z,94325.95
2019-05-11T05:37:58.744Z,94326.45
2019-05-11T05:40:27.384Z,94313.64
2019-05-11T05:42:56.019Z,94313.64
2019-05-11T05:45:24.730Z,94316.73
2019-05-11T05:47:53.504Z,94331.23
2019-05-11T05:50:22.231Z,94331.23
2019-05-11T05:52:50.956Z,94332.31
2019-05-11T05:55:19.844Z,94332.31
2019-05-11T05:57:49.532Z,94327.23
2019-05-11T06:00:18.334Z,94328.79
2019-05-11T06:02:46.947Z,94326.56
2019-05-11T06:05:15.924Z,94328.70
2019-05-11T06:07:44.739Z,94323.43
2019-05-11T06:10:13.766Z,94326.95
2019-05-11T06:12:42.618Z,94328.79
2019-05-11T06:15:11.409Z,94329.73
2019-05-11T06:17:40.047Z,94332.94
2019-05-11T06:20:09.321Z,94332.86
2019-05-11T06:22:38.200Z,94329.26
2019-05-11T06:25:07.190Z,94333.72
2019-05-11T06:27:35.824Z,94327.55
2019-05-11T06:30:04.956Z,94326.11
2019-05-11T06:32:33.816Z,94330.80
2019-05-11T06:35:02.834Z,94329.64
2019-05-11T06:37:31.512Z,94330.41
2019-05-11T06:40:00.094Z,94330.41
2019-05-11T06:42:28.765Z,94322.14
2019-05-11T06:44:57.717Z,94325.27
2019-05-11T06:47:26.318Z,94332.45
2019-05-11T06:49:55.072Z,94328.08
2019-05-11T06:52:23.700Z,94338.41
2019-05-11T06:54:52.598Z,94331.97
2019-05-11T06:57:21.301Z,94330.30
2019-05-11T06:59:49.931Z,94330.30
2019-05-11T07:02:18.600Z,94331.10
2019-05-11T07:04:47.264Z,94336.05
2019-05-11T07:07:15.881Z,94326.92
2019-05-11T07:09:44.522Z,94328.54
2019-05-11T07:12:13.317Z,94334.07
2019-05-11T07:14:41.914Z,94339.35
2019-05-11T07:17:10.519Z,94338.16
2019-05-11T07:19:39.133Z,94337.37
2019-05-11T07:22:07.859Z,94343.41
2019-05-11T07:24:36.552Z,94340.94
2019-05-11T07:27:05.303Z,94339.09
2019-05-11T07:29:34.017Z,94346.05
2019-05-11T07:32:10.148Z,94339.96
2019-05-11T07:34:33.253Z,94339.88
2019-05-11T07:37:01.897Z,94344.40
2019-05-11T07:39:31.186Z,94337.42
2019-05-11T07:42:00.152Z,94333.20
2019-05-11T07:44:37.952Z,94334.20
2019-05-11T07:46:59.458Z,94335.30
2019-05-11T07:49:29.216Z,94333.67
2019-05-11T07:51:58.787Z,94343.08
2019-05-11T07:54:28.345Z,94334.84
2019-05-11T07:56:58.402Z,94341.77
2019-05-11T07:59:28.924Z,94342.25
2019-05-11T08:01:58.791Z,94341.83
2019-05-11T08:04:28.833Z,94336.42
2019-05-11T08:06:58.413Z,94335.83
2019-05-11T08:09:27.963Z,94341.20
2019-05-11T08:11:58.524Z,94340.17
2019-05-11T08:14:28.760Z,94339.20
2019-05-11T08:16:59.416Z,94343.41
2019-05-11T08:19:28.596Z,94344.59
2019-05-11T08:21:58.225Z,94337.90
2019-05-11T08:24:28.468Z,94344.08
2019-05-11T08:26:58.217Z,94340.84
2019-05-11T08:29:27.873Z,94339.30
2019-05-11T08:31:57.907Z,94348.67
2019-05-11T08:34:28.538Z,94345.42
2019-05-11T08:36:58.365Z,94345.09
2019-05-11T08:39:28.838Z,94347.77
2019-05-11T08:41:58.937Z,94355.38
2019-05-11T08:44:28.734Z,94349.30
2019-05-11T08:46:58.263Z,94357.45
2019-05-11T08:49:28.697Z,94351.39
2019-05-11T08:51:57.969Z,94359.34
2019-05-11T08:54:28.846Z,94355.84
2019-05-11T08:56:58.771Z,94351.52
2019-05-11T08:59:28.047Z,94355.90
2019-05-11T09:01:58.807Z,94356.95
2019-05-11T09:04:28.847Z,94358.33
2019-05-11T09:06:58.700Z,94366.38
2019-05-11T09:09:28.712Z,94366.55
2019-05-11T09:11:58.805Z,94366.53
2019-05-11T09:14:28.501Z,94371.75
2019-05-11T09:16:57.886Z,94365.97
2019-05-11T09:19:28.408Z,94370.42
2019-05-11T09:21:58.768Z,94374.05
2019-05-11T09:24:28.299Z,94380.95
2019-05-11T09:26:58.593Z,94379.62
2019-05-11T09:29:28.320Z,94382.03
2019-05-11T09:31:58.244Z,94384.78
2019-05-11T09:34:28.803Z,94378.72
2019-05-11T09:36:58.622Z,94380.75
2019-05-11T09:39:28.172Z,94386.40
2019-05-11T09:41:58.396Z,94386.09
2019-05-11T09:44:28.817Z,94387.39
2019-05-11T09:47:01.956Z,94393.23
2019-05-11T09:49:43.327Z,94404.25
2019-05-11T09:51:59.063Z,94402.12
2019-05-11T09:54:28.933Z,94403.51
2019-05-11T09:56:58.010Z,94414.20
2019-05-11T09:59:28.176Z,94407.77
2019-05-11T10:01:58.967Z,94414.00
2019-05-11T10:04:28.892Z,94423.58
2019-05-11T10:06:58.527Z,94424.13
2019-05-11T10:09:28.111Z,94425.29
2019-05-11T10:11:58.510Z,94423.72
2019-05-11T10:14:28.837Z,94430.81
2019-05-11T10:16:58.377Z,94418.53
2019-05-11T10:19:28.422Z,94424.45
2019-05-11T10:21:58.042Z,94429.86
2019-05-11T10:24:28.307Z,94436.31
2019-05-11T10:26:57.911Z,94435.77
2019-05-11T10:29:28.892Z,94440.98
2019-05-11T10:31:58.710Z,94448.80
2019-05-11T10:34:28.589Z,94446.48
2019-05-11T10:36:58.111Z,94453.38
2019-05-11T10:39:27.926Z,94450.80
2019-05-11T10:41:58.443Z,94454.59
2019-05-11T10:44:28.102Z,94461.98
2019-05-11T10:46:58.982Z,94469.89
2019-05-11T10:49:28.922Z,94462.54
2019-05-11T10:51:58.646Z,94466.80
2019-05-11T10:54:28.671Z,94474.22
2019-05-11T10:56:58.075Z,94477.62
2019-05-11T10:59:28.230Z,94474.09
2019-05-11T11:01:58.995Z,94471.36
2019-05-11T11:04:28.800Z,94484.43
2019-05-11T11:06:59.163Z,94485.84
2019-05-11T11:09:28.423Z,94488.77
2019-05-11T11:11:57.882Z,94487.78
2019-05-11T11:14:28.637Z,94490.69
2019-05-11T11:16:58.384Z,94499.74
2019-05-11T11:19:28.989Z,94501.59
2019-05-11T11:22:22.227Z,94504.09
2019-05-11T11:24:28.797Z,94502.30
2019-05-11T11:26:57.770Z,94506.48
2019-05-11T11:29:28.720Z,94507.23
2019-05-11T11:31:58.696Z,94507.23
2019-05-11T11:34:28.054Z,94512.45
2019-05-11T11:36:58.051Z,94472.67
2019-05-11T11:39:28.382Z,94526.09
2019-05-11T11:41:58.545Z,94520.27
2019-05-11T11:44:28.631Z,94524.37
2019-05-11T11:46:59.084Z,94531.73
2019-05-11T11:49:28.343Z,94528.87
2019-05-11T11:51:57.848Z,94533.27
2019-05-11T11:54:28.795Z,94537.06
2019-05-11T11:56:58.968Z,94535.33
2019-05-11T11:59:28.702Z,94538.05
2019-05-11T12:01:58.121Z,94539.13
2019-05-11T12:04:28.301Z,94545.70
2019-05-11T12:06:58.099Z,94544.89
2019-05-11T12:09:28.710Z,94551.03
2019-05-11T12:11:58.272Z,94558.17
2019-05-11T12:14:28.167Z,94559.59
2019-05-11T12:17:06.961Z,94565.63
2019-05-11T12:19:28.029Z,94561.45
2019-05-11T12:21:58.089Z,94567.51
2019-05-11T12:24:28.779Z,94569.83
2019-05-11T12:26:58.730Z,94579.09
2019-05-11T12:29:28.153Z,94577.11
2019-05-11T12:31:58.959Z,94589.80
2019-05-11T12:34:28.458Z,94588.63
2019-05-11T12:36:58.102Z,94589.87
2019-05-11T12:39:28.215Z,94596.41
2019-05-11T12:41:58.219Z,94604.91
2019-05-11T12:44:28.385Z,94612.80
2019-05-11T12:46:58.410Z,94616.90
2019-05-11T12:49:29.001Z,94624.30
2019-05-11T12:51:58.321Z,94628.95
2019-05-11T12:54:28.092Z,94632.37
2019-05-11T12:56:58.036Z,94632.37
2019-05-11T12:59:27.829Z,94637.22
2019-05-11T13:01:58.825Z,94644.00
2019-05-11T13:04:28.218Z,94652.27
2019-05-11T13:06:58.147Z,94650.96
2019-05-11T13:09:28.808Z,94653.50
2019-05-11T13:11:58.750Z,94649.11
2019-05-11T13:14:27.874Z,94663.02
2019-05-11T13:16:58.734Z,94659.58
2019-05-11T13:19:28.179Z,94657.03
2019-05-11T13:21:58.993Z,94666.04
2019-05-11T13:24:28.239Z,94666.04
2019-05-11T13:26:59.580Z,94679.20
2019-05-11T13:29:28.709Z,94681.23
2019-05-11T13:31:59.073Z,94685.95
2019-05-11T13:34:31.185Z,94698.91
2019-05-11T13:36:58.329Z,94698.91
2019-05-11T13:39:28.526Z,94704.31
2019-05-11T13:41:57.976Z,94704.31
2019-05-11T13:44:27.975Z,94715.28
2019-05-11T13:46:58.702Z,94720.48
2019-05-11T13:49:28.333Z,94720.48
2019-05-11T13:51:58.528Z,94720.31
2019-05-11T13:54:29.639Z,94726.35
2019-05-11T13:56:57.795Z,94726.35
2019-05-11T13:59:27.978Z,94734.80
2019-05-11T14:01:58.227Z,94734.80
2019-05-11T14:04:28.106Z,94746.23
2019-05-11T14:06:58.624Z,94746.23
2019-05-11T14:09:28.904Z,94753.42
2019-05-11T14:11:58.328Z,94765.16
2019-05-11T14:14:28.807Z,94774.59
2019-05-11T14:16:58.834Z,94776.37
2019-05-11T14:19:29.035Z,94776.37
2019-05-11T14:21:58.397Z,94787.15
2019-05-11T14:24:28.866Z,94798.89
2019-05-11T14:26:58.181Z,94806.09
2019-05-11T14:29:28.407Z,94806.09
2019-05-11T14:31:58.064Z,94805.91
2019-05-11T14:34:28.330Z,94817.50
2019-05-11T14:36:58.218Z,94817.50
2019-05-11T14:39:27.968Z,94818.13
2019-05-11T14:41:58.711Z,94822.28
2019-05-11T14:44:28.516Z,94836.75
2019-05-11T14:46:59.275Z,94838.72
2019-05-11T14:49:27.899Z,94847.48
2019-05-11T14:51:57.752Z,94856.63
2019-05-11T14:54:28.743Z,94853.84
2019-05-11T14:56:58.623Z,94853.84
2019-05-11T14:59:28.575Z,94872.86
2019-05-11T15:01:58.352Z,94872.86
2019-05-11T15:04:28.739Z,94874.77
2019-05-11T15:06:57.978Z,94874.94
2019-05-11T15:09:28.613Z,94885.95
2019-05-11T15:11:58.107Z,94892.91
2019-05-11T15:14:28.890Z,94887.56
2019-05-11T15:16:57.693Z,94903.19
2019-05-11T15:19:27.883Z,94904.38
2019-05-11T15:21:58.150Z,94899.95
2019-05-11T15:24:28.761Z,94918.86
2019-05-11T15:26:57.715Z,94918.86
2019-05-11T15:29:28.555Z,94934.48
2019-05-11T15:31:57.931Z,94934.48
2019-05-11T15:34:28.675Z,94934.70
2019-05-11T15:36:58.293Z,94938.03
2019-05-11T15:39:28.714Z,94947.40
2019-05-11T15:42:09.160Z,94947.40
2019-05-11T15:44:28.600Z,94944.25
2019-05-11T15:46:58.284Z,94957.09
2019-05-11T15:49:28.420Z,94969.61
2019-05-11T15:51:58.024Z,94969.61
2019-05-11T15:54:28.821Z,94979.44
2019-05-11T15:56:59.612Z,94980.22
2019-05-11T15:59:27.929Z,94991.67
2019-05-11T16:01:58.293Z,94998.43
2019-05-11T16:04:28.152Z,94997.16
2019-05-11T16:06:57.544Z,94997.16
2019-05-11T16:09:29.021Z,95001.70
2019-05-11T16:11:57.872Z,95001.70
2019-05-11T16:14:28.276Z,95003.31
2019-05-11T16:16:58.465Z,95003.31
2019-05-11T16:19:28.150Z,95015.77
2019-05-11T16:21:56.958Z,95018.47
2019-05-11T16:24:25.578Z,95020.69
2019-05-11T16:26:54.196Z,95012.56
2019-05-11T16:29:22.875Z,95029.63
2019-05-11T16:31:51.708Z,95032.06
2019-05-11T16:34:20.463Z,95039.03
2019-05-11T16:36:49.356Z,95049.98
2019-05-11T16:39:18.692Z,95049.38
2019-05-11T16:41:48.666Z,95050.11
2019-05-11T16:44:18.490Z,95050.11
2019-05-11T16:46:48.105Z,95057.37
2019-05-11T16:49:26.075Z,95057.37
2019-05-11T16:51:48.214Z,95068.00
2019-05-11T16:54:16.831Z,95078.20
2019-05-11T16:56:45.442Z,95078.20
2019-05-11T16:59:14.304Z,95077.25
2019-05-11T17:01:43.011Z,95086.94
2019-05-11T17:04:11.650Z,95090.08
2019-05-11T17:06:41.037Z,95090.08
2019-05-11T17:09:09.652Z,95086.41
2019-05-11T17:11:38.619Z,95092.75
2019-05-11T17:14:08.293Z,95087.30
2019-05-11T17:16:38.665Z,95100.97
2019-05-11T17:19:08.145Z,95105.36
2019-05-11T17:21:38.176Z,95094.80
2019-05-11T17:24:07.246Z,95109.17
2019-05-11T17:26:38.341Z,95111.92
2019-05-11T17:29:06.346Z,95119.70
2019-05-11T17:31:37.877Z,95119.70
2019-05-11T17:34:06.082Z,95132.45
2019-05-11T17:36:34.760Z,95142.70
2019-05-11T17:39:05.800Z,95149.98
2019-05-11T17:41:34.808Z,95148.58
2019-05-11T17:44:03.520Z,95149.67
2019-05-11T17:46:32.210Z,95156.00
2019-05-11T17:49:01.722Z,95153.89
2019-05-11T17:51:30.575Z,95153.89
2019-05-11T17:53:59.746Z,95156.56
2019-05-11T17:56:29.038Z,95162.58
2019-05-11T17:58:58.487Z,95162.34
2019-05-11T18:01:27.759Z,95094.80
2019-05-11T18:03:58.301Z,95165.70
2019-05-11T18:06:27.103Z,95164.64
2019-05-11T18:08:55.798Z,95164.64
2019-05-11T18:11:24.487Z,95163.06
2019-05-11T18:13:53.394Z,95171.05
2019-05-11T18:16:22.600Z,95175.38
2019-05-11T18:18:51.365Z,95182.30
2019-05-11T18:21:19.991Z,95182.30
2019-05-11T18:23:48.691Z,95188.45
2019-05-11T18:26:18.068Z,95199.98
2019-05-11T18:28:48.250Z,95201.81
2019-05-11T18:31:18.202Z,95202.97
2019-05-11T18:33:48.723Z,95202.97
2019-05-11T18:36:18.271Z,95199.16
2019-05-11T18:38:48.737Z,95203.39
2019-05-11T18:41:17.515Z,95200.55
2019-05-11T18:43:48.255Z,95197.88
2019-05-11T18:46:16.604Z,95197.88
2019-05-11T18:48:45.200Z,95210.16
2019-05-11T18:51:13.844Z,95213.69
2019-05-11T18:53:42.791Z,95213.69
2019-05-11T18:56:11.675Z,95225.23
2019-05-11T18:58:40.581Z,95230.95
2019-05-11T19:01:09.225Z,95237.24
2019-05-11T19:03:38.561Z,95246.94
2019-05-11T19:06:08.907Z,95250.34
2019-05-11T19:08:38.501Z,95258.37
2019-05-11T19:11:09.195Z,95258.70
2019-05-11T19:13:38.746Z,95268.32
2019-05-11T19:16:08.619Z,95270.86
2019-05-11T19:18:38.784Z,95276.11
2019-05-11T19:21:09.147Z,95279.80
2019-05-11T19:23:38.154Z,95282.11
2019-05-11T19:26:08.365Z,95295.92
2019-05-11T19:28:38.415Z,95301.17
2019-05-11T19:31:08.276Z,95308.20
2019-05-11T19:33:38.156Z,95318.05
2019-05-11T19:36:07.929Z,95321.95
2019-05-11T19:38:38.353Z,95323.28
2019-05-11T19:41:08.087Z,95329.55
2019-05-11T19:43:38.217Z,95333.19
2019-05-11T19:46:08.841Z,95341.02
2019-05-11T19:48:38.462Z,95344.94
2019-05-11T19:51:11.388Z,95343.87
2019-05-11T19:53:38.623Z,95343.87
2019-05-11T19:56:07.897Z,95355.33
2019-05-11T19:58:38.042Z,95361.02
2019-05-11T20:01:08.694Z,95362.34
2019-05-11T20:03:37.964Z,95368.39
2019-05-11T20:06:08.821Z,95366.99
2019-05-11T20:08:37.550Z,95376.78
2019-05-11T20:11:08.251Z,95380.23
2019-05-11T20:13:38.668Z,95391.39
2019-05-11T20:16:08.274Z,95391.81
2019-05-11T20:18:37.176Z,95392.31
2019-05-11T20:21:16.712Z,95399.53
2019-05-11T20:23:37.934Z,95405.38
2019-05-11T20:26:08.724Z,95410.71
2019-05-11T20:28:37.813Z,95417.78
2019-05-11T20:31:08.062Z,95418.34
2019-05-11T20:33:38.503Z,95412.77
2019-05-11T20:36:08.671Z,95419.16
2019-05-11T20:38:38.336Z,95422.20
2019-05-11T20:41:08.332Z,95432.27
2019-05-11T20:43:37.039Z,95432.84
2019-05-11T20:46:08.046Z,95439.45
2019-05-11T20:48:38.265Z,95436.24
2019-05-11T20:51:08.117Z,95443.72
2019-05-11T20:53:38.762Z,95443.78
2019-05-11T20:56:08.571Z,95446.64
2019-05-11T20:58:58.798Z,95453.69
2019-05-11T21:01:28.592Z,95457.01
2019-05-11T21:03:58.526Z,95459.08
2019-05-11T21:06:29.359Z,95453.23
2019-05-11T21:08:57.691Z,95461.45
2019-05-11T21:11:26.375Z,95458.45
2019-05-11T21:13:55.040Z,95460.23
2019-05-11T21:16:23.776Z,95454.45
2019-05-11T21:18:52.601Z,95455.49
2019-05-11T21:21:21.239Z,95464.42
2019-05-11T21:23:49.846Z,95462.09
2019-05-11T21:26:19.503Z,95464.38
2019-05-11T21:28:48.700Z,95468.33
2019-05-11T21:31:18.629Z,95471.05
2019-05-11T21:33:47.404Z,95471.96
2019-05-11T21:36:18.014Z,95478.57
2019-05-11T21:38:48.191Z,95482.89
2019-05-11T21:41:16.761Z,95496.02
2019-05-11T21:43:45.430Z,95512.69
2019-05-11T21:46:14.105Z,95504.67
2019-05-11T21:48:42.805Z,95510.38
2019-05-11T21:51:11.414Z,95513.14
2019-05-11T21:53:40.123Z,95513.83
2019-05-11T21:56:10.160Z,95519.73
2019-05-11T21:58:39.272Z,95517.41
2019-05-11T22:01:08.194Z,95522.11
2019-05-11T22:03:38.283Z,95528.83
2019-05-11T22:06:08.599Z,95530.86
2019-05-11T22:08:37.569Z,95536.73
2019-05-11T22:11:08.222Z,95538.58
2019-05-11T22:13:37.953Z,95543.88
2019-05-11T22:16:08.674Z,95549.22
2019-05-11T22:18:38.023Z,95551.50
2019-05-11T22:21:08.586Z,95550.95
2019-05-11T22:23:38.535Z,95554.97
2019-05-11T22:26:07.837Z,95558.03
2019-05-11T22:28:38.835Z,95559.98
2019-05-11T22:31:07.832Z,95569.97
2019-05-11T22:33:38.549Z,95576.33
2019-05-11T22:36:07.539Z,95586.38
2019-05-11T22:38:38.554Z,95594.12
2019-05-11T22:41:08.953Z,95605.09
2019-05-11T22:43:37.862Z,95600.62
2019-05-11T22:46:06.615Z,95611.26
2019-05-11T22:48:35.249Z,95611.89
2019-05-11T22:51:04.190Z,95612.45
2019-05-11T22:53:43.811Z,95618.53
2019-05-11T22:56:03.474Z,95617.90
2019-05-11T22:58:32.181Z,95628.38
2019-05-11T23:01:00.774Z,95620.23
2019-05-11T23:03:29.871Z,95621.56
2019-05-11T23:05:58.517Z,95624.20
2019-05-11T23:08:27.116Z,95632.93
2019-05-11T23:10:55.715Z,95633.33
2019-05-11T23:13:24.680Z,95641.96
2019-05-11T23:15:53.525Z,95638.88
2019-05-11T23:18:22.147Z,95646.31
2019-05-11T23:20:51.035Z,95654.30
2019-05-11T23:23:19.645Z,95655.00
2019-05-11T23:25:48.298Z,95657.59
2019-05-11T23:28:18.471Z,95661.91
2019-05-11T23:30:47.798Z,95662.17
2019-05-11T23:33:18.413Z,95664.58
2019-05-11T23:35:48.514Z,95670.94
2019-05-11T23:38:17.762Z,95681.39
2019-05-11T23:40:48.155Z,95689.00
2019-05-11T23:43:19.244Z,95678.77
2019-05-11T23:45:47.304Z,95675.48
2019-05-11T23:48:15.996Z,95670.33
2019-05-11T23:50:44.601Z,95680.60
2019-05-11T23:53:13.469Z,95684.52
2019-05-11T23:55:42.320Z,95686.48
2019-05-11T23:58:10.934Z,95696.97
